Time;durP1;ratioP1;P1;durP2;ratioP2;P2;SDS_P1;SDS_P2;PMS_P1;PMS_P2;Temp;Humidity;BMP_temperature;BMP_pressure;BME280_temperature;BME280_humidity;BME280_pressure;Samples;Min_cycle;Max_cycle;Signal;HPM_P1;HPM_P2
2022/09/05 00:00:16;;;;;;;5.85;3.42;;;24.30;65.00;;;;;;4977915;28;20070;-69
2022/09/05 00:03:20;;;;;;;5.13;3.10;;;24.30;65.00;;;;;;4982275;28;20046;-69
2022/09/05 00:06:07;;;;;;;8.35;3.03;;;24.30;65.00;;;;;;4987289;28;20050;-69
2022/09/05 00:08:59;;;;;;;3.72;2.60;;;24.30;65.00;;;;;;4988987;28;20383;-69
2022/09/05 00:11:46;;;;;;;8.50;2.70;;;24.20;65.00;;;;;;4967638;28;20038;-69
2022/09/05 00:14:18;;;;;;;5.75;2.92;;;24.20;65.20;;;;;;4979695;28;20057;-69
2022/09/05 00:17:24;;;;;;;6.22;2.47;;;24.20;65.10;;;;;;4978117;28;20031;-70
2022/09/05 00:20:02;;;;;;;6.55;2.65;;;24.20;65.20;;;;;;4910393;29;20083;-69
2022/09/05 00:22:45;;;;;;;4.53;2.67;;;24.20;65.10;;;;;;4905146;29;20035;-69
2022/09/05 00:25:29;;;;;;;;;;;24.20;65.10;;;;;;4967832;28;20050;-69
2022/09/05 00:28:09;;;;;;;3.78;2.38;;;24.10;65.40;;;;;;4974714;28;20417;-69
2022/09/05 00:30:46;;;;;;;8.10;2.80;;;24.10;65.80;;;;;;4962781;28;20117;-69
2022/09/05 00:33:24;;;;;;;4.40;2.58;;;24.10;65.00;;;;;;4974862;28;20085;-69
2022/09/05 00:35:49;;;;;;;3.17;2.35;;;24.10;65.00;;;;;;4974050;28;20042;-69
2022/09/05 00:38:17;;;;;;;4.72;2.42;;;24.10;65.00;;;;;;4975588;28;20027;-69
2022/09/05 00:40:48;;;;;;;3.90;2.50;;;24.10;65.00;;;;;;4975092;28;20417;-69
2022/09/05 00:43:29;;;;;;;10.23;2.83;;;24.10;64.90;;;;;;4975443;28;20552;-69
2022/09/05 00:46:35;;;;;;;4.80;3.00;;;24.00;64.90;;;;;;4985489;28;20035;-69
2022/09/05 00:49:23;;;;;;;5.78;2.30;;;24.00;65.00;;;;;;4973534;28;20589;-69
2022/09/05 00:51:55;;;;;;;4.38;2.63;;;24.00;65.00;;;;;;4963931;28;20035;-69
2022/09/05 00:54:58;;;;;;;8.88;2.90;;;24.00;65.10;;;;;;4973895;28;20030;-69
2022/09/05 00:57:59;;;;;;;6.47;2.30;;;24.00;65.20;;;;;;4975120;28;20478;-69
2022/09/05 01:00:33;;;;;;;4.80;2.72;;;24.00;65.20;;;;;;4975475;28;20187;-69
2022/09/05 01:03:33;;;;;;;6.80;2.65;;;23.90;65.20;;;;;;4974960;28;20026;-69
2022/09/05 01:06:26;;;;;;;7.20;2.65;;;23.90;65.20;;;;;;4972550;28;20051;-69
2022/09/05 01:09:30;;;;;;;4.28;2.40;;;23.90;65.30;;;;;;4973494;28;20038;-69
2022/09/05 01:12:13;;;;;;;;;;;23.90;65.40;;;;;;4908925;29;20119;-69
2022/09/05 01:14:48;;;;;;;4.03;2.65;;;23.80;65.70;;;;;;4904210;29;19911;-69
2022/09/05 01:17:32;;;;;;;4.88;2.78;;;23.80;65.50;;;;;;4943864;28;20124;-69
2022/09/05 01:20:06;;;;;;;8.77;2.78;;;23.80;65.50;;;;;;4976874;28;20097;-69
2022/09/05 01:22:37;;;;;;;8.18;3.03;;;23.70;65.50;;;;;;4975738;28;20506;-69
2022/09/05 01:25:09;;;;;;;6.00;2.78;;;23.70;65.60;;;;;;4981380;28;20054;-69
2022/09/05 01:27:37;;;;;;;4.07;2.70;;;23.70;65.70;;;;;;4987155;28;20343;-69
2022/09/05 01:30:16;;;;;;;11.10;2.75;;;23.70;65.60;;;;;;4980917;28;20034;-69
2022/09/05 01:33:13;;;;;;;5.28;2.83;;;23.70;65.60;;;;;;4976977;28;20074;-69
2022/09/05 01:36:00;;;;;;;6.20;2.70;;;23.60;65.60;;;;;;4964389;28;20038;-69
2022/09/05 01:38:45;;;;;;;4.47;2.92;;;23.60;65.70;;;;;;4974831;28;20054;-69
2022/09/05 01:41:22;;;;;;;3.90;2.45;;;23.60;65.70;;;;;;4982870;28;20042;-69
2022/09/05 01:44:02;;;;;;;5.72;2.72;;;23.50;65.70;;;;;;4977739;28;20027;-69
2022/09/05 01:46:59;;;;;;;6.40;3.10;;;23.50;65.70;;;;;;4976080;28;20073;-69
2022/09/05 01:49:55;;;;;;;3.80;2.30;;;23.50;65.90;;;;;;4972914;28;20529;-69
2022/09/05 01:52:28;;;;;;;6.13;2.67;;;23.50;65.90;;;;;;4961617;28;21379;-69
2022/09/05 01:54:56;;;;;;;6.07;2.70;;;23.40;66.00;;;;;;4972975;28;20035;-69
2022/09/05 01:57:33;;;;;;;6.90;2.70;;;23.40;66.00;;;;;;4981855;28;20088;-69
2022/09/05 02:00:08;;;;;;;6.97;2.70;;;23.40;66.00;;;;;;4979869;28;20046;-69
2022/09/05 02:03:06;;;;;;;7.90;2.72;;;23.40;66.10;;;;;;4971442;28;20113;-69
2022/09/05 02:05:37;;;;;;;4.85;3.25;;;23.30;66.30;;;;;;4977436;28;20050;-69
2022/09/05 02:08:29;;;;;;;4.35;2.85;;;23.30;66.20;;;;;;4979357;28;20038;-69
2022/09/05 02:11:09;;;;;;;6.13;2.50;;;23.30;66.30;;;;;;4942520;28;20061;-69
2022/09/05 02:13:35;;;;;;;7.35;3.17;;;23.30;66.20;;;;;;4989394;28;20417;-68
2022/09/05 02:16:40;;;;;;;8.77;3.00;;;23.20;66.20;;;;;;4990934;28;20057;-69
2022/09/05 02:19:08;;;;;;;4.22;2.67;;;23.20;66.30;;;;;;4964574;28;20063;-69
2022/09/05 02:21:37;;;;;;;3.67;2.60;;;23.20;66.40;;;;;;4975737;28;20037;-69
2022/09/05 02:24:20;;;;;;;6.50;3.58;;;23.20;66.50;;;;;;4991944;28;20044;-69
2022/09/05 02:27:11;;;;;;;4.22;2.60;;;23.20;66.50;;;;;;4988993;28;20038;-69
2022/09/05 02:30:04;;;;;;;6.80;2.78;;;23.10;66.50;;;;;;4989410;28;20038;-69
2022/09/05 02:32:51;;;;;;;5.22;2.80;;;23.10;66.60;;;;;;4990028;28;20043;-69
2022/09/05 02:35:35;;;;;;;7.88;2.75;;;23.10;66.60;;;;;;4962818;28;20471;-69
2022/09/05 02:38:11;;;;;;;5.28;2.85;;;23.10;66.70;;;;;;4989360;28;20371;-69
2022/09/05 02:40:59;;;;;;;5.10;2.83;;;23.00;66.70;;;;;;4991851;28;20054;-69
2022/09/05 02:43:49;;;;;;;5.40;2.50;;;23.00;66.70;;;;;;4962540;28;20035;-69
2022/09/05 02:46:37;;;;;;;9.00;3.03;;;23.00;66.90;;;;;;4972242;28;20042;-68
2022/09/05 02:49:13;;;;;;;6.82;2.72;;;22.90;66.80;;;;;;4976993;28;20161;-69
2022/09/05 02:51:59;;;;;;;7.70;3.63;;;22.90;67.00;;;;;;4970683;28;20036;-70
2022/09/05 02:54:31;;;;;;;6.65;2.83;;;22.90;67.00;;;;;;4970812;28;20363;-69
2022/09/05 02:57:30;;;;;;;5.50;3.35;;;22.80;67.00;;;;;;4970932;28;20027;-68
2022/09/05 03:00:14;;;;;;;5.88;2.70;;;22.90;67.10;;;;;;4975503;28;20491;-69
2022/09/05 03:03:07;;;;;;;8.15;2.92;;;22.80;67.10;;;;;;4987189;28;20435;-68
2022/09/05 03:05:51;;;;;;;5.70;2.80;;;22.80;67.10;;;;;;4974270;28;20578;-69
2022/09/05 03:08:53;;;;;;;4.07;2.70;;;22.80;67.10;;;;;;4975886;28;20027;-68
2022/09/05 03:11:57;;;;;;;4.35;2.92;;;22.80;67.20;;;;;;4978836;28;20049;-68
2022/09/05 03:14:57;;;;;;;9.10;3.20;;;22.70;67.20;;;;;;4971141;28;20039;-69
2022/09/05 03:17:43;;;;;;;8.75;2.78;;;22.60;67.20;;;;;;4976573;28;20053;-69
2022/09/05 03:20:39;;;;;;;6.35;3.10;;;22.60;67.30;;;;;;4975456;28;20081;-69
2022/09/05 03:23:30;;;;;;;5.43;2.85;;;22.60;67.50;;;;;;4981956;28;20085;-68
2022/09/05 03:26:33;;;;;;;12.02;2.90;;;22.60;67.60;;;;;;4978207;28;20031;-69
2022/09/05 03:29:24;;;;;;;9.88;2.90;;;22.60;67.70;;;;;;4978354;28;20057;-69
2022/09/05 03:32:11;;;;;;;5.85;2.92;;;22.50;67.60;;;;;;4965522;28;20015;-69
2022/09/05 03:35:16;;;;;;;6.68;2.78;;;22.50;67.60;;;;;;4963138;28;20041;-68
2022/09/05 03:37:51;;;;;;;5.00;2.97;;;22.50;67.80;;;;;;4980415;28;20038;-68
2022/09/05 03:40:28;;;;;;;4.97;2.78;;;22.50;67.70;;;;;;4976123;28;20049;-68
2022/09/05 03:43:24;;;;;;;6.40;3.10;;;22.40;67.80;;;;;;4976998;28;20065;-68
2022/09/05 03:45:58;;;;;;;6.78;3.10;;;22.40;67.80;;;;;;4924351;28;20044;-69
2022/09/05 03:48:36;;;;;;;5.80;2.70;;;22.40;67.90;;;;;;4974860;28;20364;-68
2022/09/05 03:51:20;;;;;;;6.72;2.75;;;22.40;67.90;;;;;;4981066;28;20030;-68
2022/09/05 03:53:56;;;;;;;6.53;3.05;;;22.30;67.90;;;;;;4973448;28;20037;-68
2022/09/05 03:56:58;;;;;;;8.75;2.92;;;22.30;67.90;;;;;;4958178;28;20028;-68
2022/09/05 04:00:08;;;;;;;5.93;2.63;;;22.30;68.00;;;;;;4965402;28;20042;-68
2022/09/05 04:02:57;;;;;;;5.82;2.95;;;22.30;68.00;;;;;;4964532;28;20486;-68
2022/09/05 04:05:34;;;;;;;4.40;3.00;;;22.30;68.10;;;;;;4958325;28;20058;-68
2022/09/05 04:08:26;;;;;;;5.22;3.30;;;22.20;68.10;;;;;;4970034;28;20031;-68
2022/09/05 04:11:08;;;;;;;8.32;2.92;;;22.30;68.20;;;;;;4968729;28;20109;-68
2022/09/05 04:13:54;;;;;;;5.78;2.75;;;22.20;68.20;;;;;;4982215;28;20419;-68
2022/09/05 04:16:32;;;;;;;5.25;2.92;;;22.20;68.30;;;;;;4969281;28;20126;-68
2022/09/05 04:19:36;;;;;;;4.70;3.13;;;22.20;68.30;;;;;;4971222;28;20027;-68
2022/09/05 04:22:16;;;;;;;5.63;3.10;;;22.10;68.30;;;;;;4970124;28;20038;-68
2022/09/05 04:24:54;;;;;;;4.43;2.65;;;22.10;68.30;;;;;;4979373;28;20034;-68
2022/09/05 04:27:27;;;;;;;9.35;3.42;;;22.10;68.40;;;;;;4979439;28;20031;-68
2022/09/05 04:29:58;;;;;;;5.93;3.38;;;22.10;68.40;;;;;;4975977;28;20035;-68
2022/09/05 04:32:56;;;;;;;10.90;3.03;;;22.10;68.50;;;;;;4978361;28;20038;-67
2022/09/05 04:36:02;;;;;;;9.85;2.95;;;22.00;68.50;;;;;;4952047;28;20039;-68
2022/09/05 04:38:42;;;;;;;6.80;2.67;;;22.10;68.60;;;;;;4965296;28;20416;-67
2022/09/05 04:41:20;;;;;;;6.68;3.42;;;22.00;68.70;;;;;;4985766;28;20054;-68
2022/09/05 04:43:54;;;;;;;8.38;3.25;;;22.00;68.80;;;;;;4985571;28;20030;-70
2022/09/05 04:46:23;;;;;;;5.15;2.70;;;22.00;69.00;;;;;;4973768;28;20074;-70
2022/09/05 04:48:56;;;;;;;6.45;3.00;;;22.00;69.80;;;;;;4978004;28;20031;-69
2022/09/05 04:51:50;;;;;;;5.05;3.25;;;21.90;69.70;;;;;;4981944;28;20158;-68
2022/09/05 04:54:31;;;;;;;12.98;3.55;;;21.90;69.70;;;;;;4978995;28;20050;-68
2022/09/05 04:57:14;;;;;;;5.38;3.38;;;21.90;69.50;;;;;;4973879;28;20056;-67
2022/09/05 04:59:44;;;;;;;4.95;3.17;;;21.90;69.40;;;;;;4977508;28;20130;-67
2022/09/05 05:02:34;;;;;;;4.93;3.03;;;21.80;69.30;;;;;;4984163;28;20031;-68
2022/09/05 05:05:02;;;;;;;5.57;3.03;;;21.80;69.20;;;;;;4972947;28;20497;-68
2022/09/05 05:07:52;;;;;;;7.22;3.60;;;21.80;69.20;;;;;;4972949;28;20552;-67
2022/09/05 05:10:58;;;;;;;5.90;3.22;;;21.80;69.30;;;;;;4981207;28;20031;-67
2022/09/05 05:13:52;;;;;;;9.25;3.33;;;21.80;69.30;;;;;;4974012;28;20035;-68
2022/09/05 05:16:23;;;;;;;5.40;2.92;;;21.70;69.30;;;;;;4984265;28;20238;-70
2022/09/05 05:19:10;;;;;;;6.57;2.90;;;21.70;69.40;;;;;;4973447;28;20037;-70
2022/09/05 05:21:42;;;;;;;9.48;2.90;;;21.70;69.50;;;;;;4981444;28;20043;-70
2022/09/05 05:24:18;;;;;;;5.97;3.22;;;21.70;69.60;;;;;;4978912;28;20031;-69
2022/09/05 05:26:56;;;;;;;7.00;2.80;;;21.60;69.60;;;;;;4970133;28;20036;-70
2022/09/05 05:29:36;;;;;;;9.10;3.30;;;21.70;69.80;;;;;;4968443;28;20046;-68
2022/09/05 05:32:03;;;;;;;5.97;2.97;;;21.60;69.70;;;;;;4981147;28;20114;-67
2022/09/05 05:34:34;;;;;;;4.45;2.92;;;21.60;69.70;;;;;;4977322;28;20058;-67
2022/09/05 05:37:13;;;;;;;4.72;3.15;;;21.60;69.80;;;;;;4972918;28;20039;-68
2022/09/05 05:39:47;;;;;;;11.82;3.20;;;21.60;70.00;;;;;;4978344;28;20084;-68
2022/09/05 05:42:16;;;;;;;6.68;3.00;;;21.60;70.10;;;;;;4981299;28;20035;-68
2022/09/05 05:44:51;;;;;;;4.80;2.95;;;21.60;70.10;;;;;;4984846;28;20030;-68
2022/09/05 05:47:30;;;;;;;7.10;3.47;;;21.50;70.20;;;;;;4978368;28;20753;-68
2022/09/05 05:50:17;;;;;;;8.93;3.13;;;21.50;70.20;;;;;;4981707;28;20053;-68
2022/09/05 05:53:10;;;;;;;4.22;3.00;;;21.50;70.30;;;;;;4976271;28;20026;-68
2022/09/05 05:56:01;;;;;;;4.93;3.10;;;21.50;70.30;;;;;;4982675;28;20078;-68
2022/09/05 05:58:52;;;;;;;4.72;3.20;;;21.60;70.50;;;;;;4982856;28;20046;-67
2022/09/05 06:01:39;;;;;;;6.32;2.90;;;21.50;70.60;;;;;;4971544;28;20482;-69
2022/09/05 06:04:13;;;;;;;4.35;2.65;;;21.50;70.90;;;;;;4981120;28;20043;-71
2022/09/05 06:07:11;;;;;;;4.50;3.17;;;21.50;71.40;;;;;;4985844;28;20054;-71
2022/09/05 06:10:02;;;;;;;8.05;2.60;;;21.50;71.80;;;;;;4925529;29;20525;-71
2022/09/05 06:12:49;;;;;;;4.63;2.60;;;21.50;71.80;;;;;;4990077;28;20383;-70
2022/09/05 06:15:32;;;;;;;10.02;2.58;;;21.50;71.90;;;;;;4990740;28;20062;-70
2022/09/05 06:18:35;;;;;;;10.38;3.10;;;21.50;72.10;;;;;;4980007;28;20046;-71
2022/09/05 06:21:31;;;;;;;3.45;2.50;;;21.50;72.30;;;;;;4964854;28;20043;-69
2022/09/05 06:24:37;;;;;;;4.85;2.58;;;21.50;72.30;;;;;;4961742;28;20082;-70
2022/09/05 06:27:14;;;;;;;10.50;2.80;;;21.50;72.30;;;;;;4972802;28;20038;-70
2022/09/05 06:30:02;;;;;;;7.00;3.00;;;21.50;72.40;;;;;;4971724;28;20070;-70
2022/09/05 06:32:49;;;;;;;5.30;2.50;;;21.60;72.50;;;;;;4984708;28;20046;-71
2022/09/05 06:35:31;;;;;;;6.85;3.03;;;21.60;72.70;;;;;;4966284;28;20045;-71
2022/09/05 06:38:29;;;;;;;9.07;2.72;;;21.50;72.60;;;;;;4976557;28;20390;-70
2022/09/05 06:41:18;;;;;;;8.30;2.65;;;21.60;72.70;;;;;;4976198;28;20070;-70
2022/09/05 06:44:31;;;;;;;6.50;3.15;;;21.60;72.70;;;;;;4976194;28;20074;-70
2022/09/05 06:47:05;;;;;;;6.60;3.35;;;21.60;72.60;;;;;;4970447;28;20113;-72
2022/09/05 06:50:05;;;;;;;6.07;3.08;;;21.70;72.60;;;;;;4988210;28;20498;-70
2022/09/05 06:53:03;;;;;;;5.10;3.17;;;21.70;72.60;;;;;;4976440;28;20035;-70
2022/09/05 06:56:01;;;;;;;5.30;2.85;;;21.70;72.50;;;;;;4976219;28;20035;-71
2022/09/05 06:59:05;;;;;;;10.43;3.17;;;21.80;72.50;;;;;;4970600;28;20134;-71
2022/09/05 07:01:35;;;;;;;4.65;2.90;;;21.80;72.50;;;;;;4985864;28;20042;-71
2022/09/05 07:04:30;;;;;;;4.15;2.90;;;21.80;72.50;;;;;;4975316;28;20038;-71
2022/09/05 07:07:13;;;;;;;5.20;2.58;;;21.80;72.50;;;;;;4977635;28;20030;-71
2022/09/05 07:10:11;;;;;;;5.47;2.90;;;21.90;72.50;;;;;;4976133;28;20076;-71
2022/09/05 07:12:47;;;;;;;6.53;2.95;;;21.90;72.50;;;;;;4969339;28;20073;-71
2022/09/05 07:15:33;;;;;;;5.35;3.45;;;21.90;72.40;;;;;;4978221;28;20066;-71
2022/09/05 07:18:08;;;;;;;5.00;3.08;;;21.90;72.40;;;;;;4978737;28;20031;-70
2022/09/05 07:20:52;;;;;;;7.75;2.88;;;22.00;72.50;;;;;;4983999;28;20125;-71
2022/09/05 07:23:50;;;;;;;5.88;3.00;;;22.00;72.40;;;;;;4979247;28;20038;-70
2022/09/05 07:26:18;;;;;;;7.20;3.28;;;22.00;72.40;;;;;;4970585;28;20394;-70
2022/09/05 07:28:48;;;;;;;8.73;3.45;;;22.00;72.30;;;;;;4984627;28;20034;-70
2022/09/05 07:31:17;;;;;;;6.30;2.55;;;22.10;72.20;;;;;;4975989;28;20031;-70
2022/09/05 07:33:47;;;;;;;8.98;2.88;;;22.10;72.20;;;;;;4966830;28;20446;-70
2022/09/05 07:36:19;;;;;;;11.55;3.53;;;22.10;72.20;;;;;;4980361;28;20430;-70
2022/09/05 07:38:49;;;;;;;5.43;2.60;;;22.20;72.10;;;;;;4979249;28;20557;-70
2022/09/05 07:41:25;;;;;;;5.65;3.10;;;22.20;72.10;;;;;;4975865;28;20074;-70
2022/09/05 07:44:12;;;;;;;5.18;2.95;;;22.20;72.10;;;;;;4978325;28;20034;-70
2022/09/05 07:46:39;;;;;;;9.20;2.70;;;22.20;72.00;;;;;;4967943;28;20035;-70
2022/09/05 07:49:13;;;;;;;12.07;3.28;;;22.30;72.10;;;;;;4976986;28;20022;-71
2022/09/05 07:51:50;;;;;;;6.15;2.83;;;22.30;71.90;;;;;;4977479;28;20058;-70
2022/09/05 07:54:22;;;;;;;9.93;3.15;;;22.40;71.90;;;;;;4976720;28;20462;-69
2022/09/05 07:57:09;;;;;;;7.65;3.22;;;22.40;71.70;;;;;;4975403;28;20035;-70
2022/09/05 07:59:39;;;;;;;6.85;2.85;;;22.40;71.80;;;;;;4966789;28;20047;-70
2022/09/05 08:02:09;;;;;;;5.82;3.00;;;22.50;71.90;;;;;;4985691;28;20093;-69
2022/09/05 08:04:38;;;;;;;6.65;3.30;;;22.50;72.00;;;;;;4974467;28;20058;-69
2022/09/05 08:07:34;;;;;;;6.63;3.33;;;22.60;72.00;;;;;;4975759;28;20106;-69
2022/09/05 08:10:08;;;;;;;7.05;3.30;;;22.60;71.90;;;;;;4985336;28;20030;-74
2022/09/05 08:12:44;;;;;;;4.88;3.25;;;22.60;72.00;;;;;;4968103;28;20031;-70
2022/09/05 08:15:16;;;;;;;12.98;3.38;;;22.70;72.20;;;;;;4978623;28;20035;-70
2022/09/05 08:18:16;;;;;;;8.77;3.00;;;22.70;72.10;;;;;;4975463;28;20086;-70
2022/09/05 08:20:46;;;;;;;8.48;3.63;;;22.80;72.10;;;;;;4941669;28;20054;-71
2022/09/05 08:23:33;;;;;;;6.72;3.30;;;22.90;72.10;;;;;;4976315;28;20054;-70
2022/09/05 08:26:06;;;;;;;9.52;3.35;;;22.90;72.00;;;;;;4974873;28;20038;-70
2022/09/05 08:28:40;;;;;;;5.87;3.20;;;23.00;71.90;;;;;;4974072;28;20382;-70
2022/09/05 08:31:13;;;;;;;4.80;2.80;;;23.00;71.90;;;;;;4975035;28;20053;-70
2022/09/05 08:33:40;;;;;;;9.25;3.40;;;23.00;71.90;;;;;;4974638;28;20035;-70
2022/09/05 08:36:28;;;;;;;7.63;2.83;;;23.10;72.10;;;;;;4989031;28;20042;-70
2022/09/05 08:38:58;;;;;;;10.13;3.17;;;23.10;72.20;;;;;;4982005;28;20035;-70
2022/09/05 08:41:48;;;;;;;6.57;3.20;;;23.20;71.90;;;;;;4973973;28;20050;-70
2022/09/05 08:44:21;;;;;;;8.77;3.35;;;23.20;72.10;;;;;;4973938;28;20034;-70
2022/09/05 08:46:49;;;;;;;;;;;23.30;72.00;;;;;;4975318;28;20085;-70
2022/09/05 08:49:45;;;;;;;6.38;2.90;;;23.30;71.90;;;;;;4973417;28;19917;-73
2022/09/05 08:52:23;;;;;;;5.63;3.03;;;23.40;71.80;;;;;;4974473;28;20121;-69
2022/09/05 08:55:17;;;;;;;14.90;3.30;;;23.40;71.90;;;;;;4969210;28;20039;-70
2022/09/05 08:58:25;;;;;;;7.05;2.88;;;23.40;72.00;;;;;;4981539;28;20553;-71
2022/09/05 09:01:03;;;;;;;7.53;3.30;;;23.40;71.90;;;;;;4983277;28;20443;-71
2022/09/05 09:03:39;;;;;;;8.88;3.30;;;23.50;72.00;;;;;;4978528;28;20101;-71
2022/09/05 09:06:38;;;;;;;5.47;3.05;;;23.50;72.00;;;;;;4979371;28;20046;-69
2022/09/05 09:09:06;;;;;;;12.82;3.25;;;23.70;72.00;;;;;;4982090;28;20052;-70
2022/09/05 09:11:39;;;;;;;5.63;3.22;;;23.70;72.00;;;;;;4981700;28;20038;-70
2022/09/05 09:14:28;;;;;;;8.33;3.20;;;23.70;72.20;;;;;;4974041;28;20026;-70
2022/09/05 09:17:06;;;;;;;9.88;3.35;;;23.80;72.20;;;;;;4972864;28;20310;-70
2022/09/05 09:19:49;;;;;;;6.20;3.25;;;23.80;72.10;;;;;;4973646;28;20610;-70
2022/09/05 09:22:33;;;;;;;7.45;2.88;;;23.80;72.20;;;;;;4979437;28;20057;-70
2022/09/05 09:25:42;;;;;;;10.48;3.25;;;23.90;72.40;;;;;;4984636;28;20030;-70
2022/09/05 09:28:41;;;;;;;6.53;2.90;;;23.90;72.50;;;;;;4973134;28;20062;-73
2022/09/05 09:31:12;;;;;;;7.20;2.92;;;24.00;72.50;;;;;;4972706;28;20118;-71
2022/09/05 09:33:46;;;;;;;10.57;2.75;;;24.10;72.50;;;;;;4974173;28;20410;-70
2022/09/05 09:36:59;;;;;;;6.95;2.90;;;24.10;72.50;;;;;;4973156;28;20106;-71
2022/09/05 09:39:52;;;;;;;7.55;2.70;;;24.20;72.40;;;;;;4981801;28;20054;-70
2022/09/05 09:42:36;;;;;;;11.95;3.20;;;24.20;72.50;;;;;;4983467;28;20034;-70
2022/09/05 09:45:40;;;;;;;7.72;2.80;;;24.30;72.40;;;;;;4962997;28;20467;-70
2022/09/05 09:48:29;;;;;;;6.95;2.80;;;24.40;72.50;;;;;;4983091;28;20027;-70
2022/09/05 09:51:10;;;;;;;5.20;2.67;;;24.40;72.40;;;;;;4973738;28;20038;-70
2022/09/05 09:53:49;;;;;;;11.85;3.60;;;24.40;72.30;;;;;;4970324;28;20413;-67
2022/09/05 09:56:30;;;;;;;6.43;2.70;;;24.60;72.50;;;;;;4973924;28;20042;-70
2022/09/05 09:59:27;;;;;;;6.95;2.67;;;24.60;72.30;;;;;;4986485;28;20039;-70
2022/09/05 10:02:19;;;;;;;4.07;2.38;;;24.60;72.20;;;;;;4987290;28;20058;-70
2022/09/05 10:05:14;;;;;;;3.67;2.35;;;24.70;72.10;;;;;;4968036;28;20103;-69
2022/09/05 10:07:55;;;;;;;6.38;2.95;;;24.70;72.10;;;;;;4971363;28;20513;-69
2022/09/05 10:10:58;;;;;;;6.65;2.80;;;24.80;72.40;;;;;;4962533;28;20039;-69
2022/09/05 10:13:31;;;;;;;8.18;2.80;;;24.90;72.10;;;;;;4978306;28;20030;-69
2022/09/05 10:16:18;;;;;;;3.45;2.53;;;25.00;72.30;;;;;;4989737;28;20173;-69
2022/09/05 10:19:11;;;;;;;6.55;2.70;;;25.00;72.00;;;;;;4987611;28;20034;-69
2022/09/05 10:22:11;;;;;;;9.27;2.60;;;25.10;71.90;;;;;;4972031;28;20039;-69
2022/09/05 10:25:08;;;;;;;7.38;2.30;;;25.10;71.70;;;;;;4975754;28;20553;-70
2022/09/05 10:27:37;;;;;;;5.18;3.10;;;25.20;71.80;;;;;;4966872;28;20037;-69
2022/09/05 10:30:21;;;;;;;12.55;2.60;;;25.30;71.90;;;;;;4979298;28;20045;-69
2022/09/05 10:33:11;;;;;;;9.48;3.65;;;25.30;71.60;;;;;;4979417;28;20060;-69
2022/09/05 10:35:43;;;;;;;7.15;2.50;;;25.40;71.60;;;;;;4980831;28;20026;-71
2022/09/05 10:38:13;;;;;;;3.57;2.07;;;25.40;71.70;;;;;;4983012;28;20030;-70
2022/09/05 10:40:43;;;;;;;3.50;2.38;;;25.40;71.50;;;;;;4986279;28;20043;-69
2022/09/05 10:43:15;;;;;;;11.50;2.83;;;25.50;71.50;;;;;;4980228;28;20034;-69
2022/09/05 10:45:56;;;;;;;6.55;3.17;;;25.60;71.40;;;;;;4980665;28;20034;-69
2022/09/05 10:48:37;;;;;;;2.97;2.05;;;25.60;71.20;;;;;;4985131;28;20394;-69
2022/09/05 10:51:10;;;;;;;4.20;2.10;;;25.60;71.20;;;;;;4974532;28;20034;-69
2022/09/05 10:54:01;;;;;;;13.80;2.78;;;25.70;71.40;;;;;;4978368;28;20529;-69
2022/09/05 10:56:38;;;;;;;7.70;2.53;;;25.70;71.40;;;;;;4971647;28;20038;-68
2022/09/05 10:59:22;;;;;;;4.88;1.90;;;25.80;71.20;;;;;;4972535;28;20034;-69
2022/09/05 11:02:12;;;;;;;3.42;2.42;;;25.80;71.00;;;;;;4982591;28;20038;-70
2022/09/05 11:05:02;;;;;;;7.88;2.42;;;25.90;71.10;;;;;;4979725;28;20094;-69
2022/09/05 11:07:49;;;;;;;7.80;2.28;;;25.90;71.10;;;;;;4962337;28;20137;-69
2022/09/05 11:10:33;;;;;;;9.35;2.33;;;26.00;70.90;;;;;;4971982;28;20032;-69
2022/09/05 11:13:10;;;;;;;4.63;2.28;;;26.00;70.90;;;;;;4983717;28;20475;-68
2022/09/05 11:15:47;;;;;;;9.82;2.10;;;26.10;70.80;;;;;;4979731;28;20121;-69
2022/09/05 11:18:22;;;;;;;6.10;2.63;;;26.20;70.90;;;;;;4982333;28;20038;-68
2022/09/05 11:21:23;;;;;;;9.90;2.10;;;26.20;70.90;;;;;;4980855;28;20188;-69
2022/09/05 11:24:08;;;;;;;4.93;2.30;;;26.20;70.60;;;;;;4960576;28;20402;-69
2022/09/05 11:26:45;;;;;;;4.15;2.40;;;26.30;70.60;;;;;;4975904;28;20085;-69
2022/09/05 11:29:17;;;;;;;7.28;2.28;;;26.40;70.40;;;;;;4978937;28;20027;-69
2022/09/05 11:31:55;;;;;;;15.50;2.28;;;26.40;70.50;;;;;;4976745;28;20466;-69
2022/09/05 11:34:39;;;;;;;7.65;2.55;;;26.50;70.60;;;;;;4979684;28;20043;-69
2022/09/05 11:37:20;;;;;;;4.85;2.20;;;26.50;70.80;;;;;;4985679;28;20490;-69
2022/09/05 11:40:15;;;;;;;4.63;2.50;;;26.50;70.30;;;;;;4990119;28;20046;-68
2022/09/05 11:43:05;;;;;;;3.35;2.08;;;26.60;70.30;;;;;;4972995;28;20027;-68
2022/09/05 11:45:57;;;;;;;5.72;2.20;;;26.60;70.10;;;;;;4978796;28;20117;-69
2022/09/05 11:49:00;;;;;;;12.15;2.10;;;26.70;70.20;;;;;;4929690;28;20254;-68
2022/09/05 11:51:49;;;;;;;7.78;2.20;;;26.70;70.20;;;;;;4968696;28;20061;-69
2022/09/05 11:54:36;;;;;;;4.57;1.85;;;26.80;70.00;;;;;;4979565;28;20467;-68
2022/09/05 11:57:16;;;;;;;4.32;2.13;;;26.80;70.00;;;;;;4978741;28;20023;-68
2022/09/05 12:00:07;;;;;;;5.60;2.42;;;26.80;69.70;;;;;;4971692;28;20080;-68
2022/09/05 12:02:44;;;;;;;13.45;2.30;;;26.90;69.70;;;;;;4979450;28;20042;-70
2022/09/05 12:05:53;;;;;;;13.30;2.40;;;27.00;69.80;;;;;;4985839;28;20056;-68
2022/09/05 12:08:30;;;;;;;4.18;2.30;;;27.10;70.10;;;;;;4976689;28;20031;-69
2022/09/05 12:11:15;;;;;;;10.38;2.75;;;27.10;69.80;;;;;;4975002;28;20041;-69
2022/09/05 12:14:22;;;;;;;5.63;2.10;;;27.10;70.00;;;;;;4981953;28;20066;-70
2022/09/05 12:17:37;;;;;;;4.03;2.15;;;27.10;69.80;;;;;;4979624;28;20077;-69
2022/09/05 12:20:11;;;;;;;3.50;2.20;;;27.30;70.00;;;;;;4948098;28;20051;-69
2022/09/05 12:23:20;;;;;;;5.57;2.50;;;27.20;69.60;;;;;;4981930;28;20545;-69
2022/09/05 12:26:04;;;;;;;6.65;2.35;;;27.30;69.90;;;;;;4939581;28;20386;-68
2022/09/05 12:28:44;;;;;;;9.43;2.13;;;27.30;69.90;;;;;;4970273;28;20035;-69
2022/09/05 12:31:26;;;;;;;11.50;2.63;;;27.30;69.90;;;;;;4983954;28;20038;-69
2022/09/05 12:33:59;;;;;;;3.30;2.28;;;27.40;69.70;;;;;;4982954;28;20038;-68
2022/09/05 12:36:46;;;;;;;4.60;2.35;;;27.40;69.50;;;;;;4979151;28;20023;-68
2022/09/05 12:39:38;;;;;;;13.15;2.42;;;27.50;69.80;;;;;;4977276;28;20117;-68
2022/09/05 12:42:39;;;;;;;8.60;2.47;;;27.60;69.70;;;;;;4972858;28;20050;-69
2022/09/05 12:45:24;;;;;;;4.18;2.28;;;27.60;69.60;;;;;;4969957;28;20549;-69
2022/09/05 12:48:21;;;;;;;8.30;2.28;;;27.70;69.70;;;;;;4964954;28;20034;-69
2022/09/05 12:51:08;;;;;;;8.52;2.45;;;27.70;70.00;;;;;;4975896;28;20026;-69
2022/09/05 12:53:57;;;;;;;3.55;2.05;;;27.80;69.90;;;;;;4977017;28;20026;-69
2022/09/05 12:56:46;;;;;;;10.00;2.40;;;27.90;69.90;;;;;;4973290;28;20503;-69
2022/09/05 12:59:17;;;;;;;9.82;2.22;;;27.90;69.80;;;;;;4969155;28;20026;-68
2022/09/05 13:01:44;;;;;;;8.93;2.30;;;27.90;69.30;;;;;;4984933;28;20100;-69
2022/09/05 13:04:20;;;;;;;7.65;2.35;;;27.90;69.00;;;;;;4974367;28;20042;-68
2022/09/05 13:07:00;;;;;;;3.45;2.30;;;28.00;69.10;;;;;;4970967;28;20030;-74
2022/09/05 13:09:42;;;;;;;4.75;2.28;;;28.00;69.30;;;;;;4977971;28;20033;-71
2022/09/05 13:12:28;;;;;;;9.10;2.30;;;28.10;68.60;;;;;;4965805;28;20035;-68
2022/09/05 13:15:07;;;;;;;12.82;2.30;;;28.20;69.10;;;;;;4971778;28;20030;-69
2022/09/05 13:17:39;;;;;;;9.65;2.10;;;28.20;68.90;;;;;;4972946;28;20043;-68
2022/09/05 13:20:15;;;;;;;5.88;2.17;;;28.20;68.50;;;;;;4972118;28;20035;-68
2022/09/05 13:22:45;;;;;;;11.27;2.20;;;28.30;68.90;;;;;;4967386;28;20408;-69
2022/09/05 13:25:22;;;;;;;4.70;2.40;;;28.30;69.20;;;;;;4970972;28;20039;-69
2022/09/05 13:27:55;;;;;;;8.73;2.55;;;28.30;68.80;;;;;;4977392;28;20066;-69
2022/09/05 13:30:24;;;;;;;4.75;2.20;;;28.40;68.80;;;;;;4967158;28;20467;-69
2022/09/05 13:32:52;;;;;;;4.18;2.40;;;28.40;69.30;;;;;;4968600;28;20035;-69
2022/09/05 13:35:35;;;;;;;5.43;2.05;;;28.40;68.40;;;;;;4958047;28;20388;-69
2022/09/05 13:38:09;;;;;;;7.07;2.30;;;28.50;68.50;;;;;;4972716;28;20034;-69
2022/09/05 13:40:43;;;;;;;4.10;2.00;;;28.50;68.80;;;;;;4980240;28;20042;-68
2022/09/05 13:43:21;;;;;;;6.45;2.38;;;28.60;68.50;;;;;;4964777;28;20113;-71
2022/09/05 13:46:15;;;;;;;8.70;2.05;;;28.60;68.60;;;;;;4973353;28;20083;-70
2022/09/05 13:48:55;;;;;;;4.72;2.00;;;28.60;68.50;;;;;;4983264;28;20095;-70
2022/09/05 13:51:35;;;;;;;6.05;2.40;;;28.60;68.50;;;;;;4970692;28;20038;-70
2022/09/05 13:54:35;;;;;;;6.55;2.10;;;28.60;68.90;;;;;;4976687;28;20034;-70
2022/09/05 13:57:19;;;;;;;3.50;1.83;;;28.60;69.00;;;;;;4972676;28;20077;-70
2022/09/05 14:00:14;;;;;;;3.40;2.20;;;28.60;69.20;;;;;;4979281;28;20039;-72
2022/09/05 14:03:18;;;;;;;5.40;2.47;;;28.60;69.20;;;;;;4974114;28;20039;-70
2022/09/05 14:05:50;;;;;;;7.07;2.70;;;28.60;69.00;;;;;;4983177;28;20063;-70
2022/09/05 14:08:45;;;;;;;9.07;2.17;;;28.60;69.20;;;;;;4988391;28;20500;-69
2022/09/05 14:11:46;;;;;;;3.72;1.95;;;28.70;69.40;;;;;;4964956;28;20390;-69